Dallas, OR (97338)

1:39 PM PST on February 14, 2016 (GMT -0800)
City View | | Change Station
CLOSE
Current Station
Personal Weather Station
Location: Dallas, OR
Elevation: 435 ft
Nearby Weather Stations

Elev 435 ft 44.92 °N, 123.33 °W | Updated 14 seconds ago

Overcast
Overcast
56.1 °F
Feels Like 56.1 °F
N
2.0
Wind Variable Wind from South
Gusts 10.0 mph

Today
High -- | Low -- °F
--% Chance of Precip.
Yesterday
High -- | Low -- °F
Precip. -- in
Pressure 30.29 in
Visibility 4.0 miles
Clouds Mostly Cloudy 900 ft
Mostly Cloudy 1600 ft
Overcast 2800 ft
Dew Point 53 °F
Humidity 88%
Rainfall 0.18 in
Snow Depth Not available.
7:16 AM 5:39 PM
Waxing Crescent, 45% visible
METAR KSLE 142056Z 19010KT 4SM -RA BR BKN009 BKN016 OVC028 13/11 A3028 RMK AO2 RAB1959 SLP255 P0002 60003 T01280111 50004
Pressure 30.29 in
Visibility 4.0 miles
Clouds Mostly Cloudy 900 ft
Mostly Cloudy 1600 ft
Overcast 2800 ft
Dew Point 53 °F
Humidity 88%
Rainfall 0.18 in
Snow Depth Not available.
7:16 AM 5:39 PM
Waxing Crescent, 45% visible
METAR KSLE 142056Z 19010KT 4SM -RA BR BKN009 BKN016 OVC028 13/11 A3028 RMK AO2 RAB1959 SLP255 P0002 60003 T01280111 50004

10-Day Weather Forecast

Almanac

Astronomy

Feb. 14, 2016 Rise Set
Actual Time
Civil Twilight
Nautical Twilight
Astronomical Twilight
Moon
Length of Visible Light
Length of Day
Tomorrow will be .
, % of the Moon is Illuminated

Today's Extremes

State Highs State Lows

Community

WunderPhotos

Upload Photos

1,892,890 photos uploaded!

WunderBlog® & News

Nearby

Air Quality

  Air Quality AQ Index Pollutant
Not available.

Snow Depth

Station Depth Elevation

Earthquake Activity

City Distance Mag. Time & Date
Minimum magnitude displayed is 2.5.

Coastal Water Temperatures

Place Temperature

Stations

Nearby Weather Stations

Station Location Temp. Windchill Dew Point Humidity Wind Precip. Elev Updated Type
                   

Watches & Warnings

There are currently no watches in effect.